Time;durP1;ratioP1;P1;durP2;ratioP2;P2;SDS_P1;SDS_P2;PMS_P1;PMS_P2;Temp;Humidity;BMP_temperature;BMP_pressure;BME280_temperature;BME280_humidity;BME280_pressure;Samples;Min_cycle;Max_cycle;Signal;HPM_P1;HPM_P2
2022/07/24 00:02:15;;;;;;;7.83;6.87;;;20.40;96.70;;;;;;5087986;28;20813;-86
2022/07/24 00:04:42;;;;;;;8.17;7.07;;;20.40;96.80;;;;;;5088080;28;21121;-86
2022/07/24 00:07:09;;;;;;;8.23;7.43;;;20.40;97.60;;;;;;5088180;28;20604;-86
2022/07/24 00:09:36;;;;;;;7.37;6.53;;;20.40;96.80;;;;;;5088578;28;20647;-86
2022/07/24 00:12:08;;;;;;;6.43;5.83;;;20.30;97.30;;;;;;5088123;28;20613;-86
2022/07/24 00:14:36;;;;;;;7.40;6.60;;;20.30;97.90;;;;;;5087918;28;20977;-87
2022/07/24 00:17:05;;;;;;;7.73;6.83;;;20.30;98.10;;;;;;5088036;28;20619;-86
2022/07/24 00:19:33;;;;;;;9.40;7.80;;;20.20;97.40;;;;;;5088276;28;20660;-85
2022/07/24 00:22:02;;;;;;;8.83;7.93;;;20.20;97.40;;;;;;5088562;28;20627;-86
2022/07/24 00:24:30;;;;;;;7.83;7.07;;;20.30;97.90;;;;;;5088092;28;20612;-86
2022/07/24 00:26:57;;;;;;;9.17;7.97;;;20.20;98.20;;;;;;5088229;28;20711;-86
2022/07/24 00:29:24;;;;;;;10.67;7.93;;;20.10;98.10;;;;;;5087771;28;20634;-86
2022/07/24 00:31:52;;;;;;;9.13;7.90;;;20.20;98.00;;;;;;5088361;28;20616;-86
2022/07/24 00:34:21;;;;;;;11.83;8.20;;;20.10;98.30;;;;;;5100995;28;20636;-86
2022/07/24 00:36:48;;;;;;;9.00;8.10;;;20.00;98.40;;;;;;5108206;28;20627;-85
2022/07/24 00:39:16;;;;;;;11.67;9.40;;;20.00;98.90;;;;;;5107750;28;20637;-86
2022/07/24 00:41:43;;;;;;;10.80;9.70;;;19.90;98.60;;;;;;5108468;28;20949;-87
2022/07/24 00:44:13;;;;;;;10.67;9.47;;;19.90;99.20;;;;;;5107950;28;20607;-86
2022/07/24 00:46:43;;;;;;;9.93;7.80;;;19.80;99.10;;;;;;5108667;28;20618;-86
2022/07/24 00:49:12;;;;;;;11.47;8.90;;;19.80;99.60;;;;;;5108296;28;20653;-86
2022/07/24 00:51:44;;;;;;;8.00;7.20;;;19.90;99.10;;;;;;5109354;28;20730;-86
2022/07/24 00:54:13;;;;;;;7.90;7.07;;;19.90;99.20;;;;;;5107597;28;20650;-86
2022/07/24 00:56:43;;;;;;;11.20;8.77;;;19.90;99.00;;;;;;5108143;28;20586;-86
2022/07/24 00:59:10;;;;;;;9.20;7.63;;;19.90;99.00;;;;;;5107424;28;20684;-86
2022/07/24 01:01:37;;;;;;;9.43;8.57;;;19.80;98.10;;;;;;5107757;28;20732;-85
2022/07/24 01:04:05;;;;;;;11.40;7.50;;;19.90;98.20;;;;;;5107019;28;20619;-86
2022/07/24 01:06:32;;;;;;;8.47;7.67;;;19.90;97.90;;;;;;5107789;28;21313;-86
2022/07/24 01:09:01;;;;;;;7.20;6.40;;;19.90;97.90;;;;;;5107234;28;20963;-86
2022/07/24 01:11:29;;;;;;;7.40;6.57;;;19.90;98.00;;;;;;5107599;28;20611;-86
2022/07/24 01:13:57;;;;;;;10.77;6.50;;;19.80;99.00;;;;;;5107600;28;20622;-86
2022/07/24 01:16:24;;;;;;;8.73;7.23;;;19.70;99.20;;;;;;5107808;28;20698;-86
2022/07/24 01:18:52;;;;;;;7.93;7.13;;;19.70;99.40;;;;;;5108271;28;20612;-86
2022/07/24 01:21:25;;;;;;;7.43;6.27;;;19.70;99.00;;;;;;5107570;28;21035;-88
2022/07/24 01:23:52;;;;;;;7.90;6.37;;;19.70;99.40;;;;;;5107609;28;20612;-86
2022/07/24 01:26:20;;;;;;;7.70;6.20;;;19.60;99.10;;;;;;5107274;28;20608;-86
2022/07/24 01:28:47;;;;;;;7.00;6.40;;;19.60;99.30;;;;;;5107942;28;20616;-87
2022/07/24 01:31:15;;;;;;;10.47;6.27;;;19.50;99.40;;;;;;5107495;28;20649;-86
2022/07/24 01:33:43;;;;;;;6.87;5.80;;;19.50;99.70;;;;;;5107348;28;21190;-86
2022/07/24 01:36:11;;;;;;;6.17;5.13;;;19.50;99.90;;;;;;5107464;28;20716;-86
2022/07/24 01:38:40;;;;;;;6.97;5.33;;;19.40;99.50;;;;;;5107742;28;20611;-86
2022/07/24 01:41:07;;;;;;;4.93;4.50;;;19.40;99.50;;;;;;5107266;28;20651;-86
2022/07/24 01:43:35;;;;;;;6.03;5.30;;;19.40;99.70;;;;;;5107279;28;21184;-86
2022/07/24 01:46:03;;;;;;;5.90;5.13;;;19.30;99.30;;;;;;5107781;28;20943;-86
2022/07/24 01:48:31;;;;;;;7.10;6.00;;;19.40;99.70;;;;;;5107286;28;20614;-85
2022/07/24 01:50:59;;;;;;;6.97;4.90;;;19.40;99.50;;;;;;5107203;28;20651;-86
2022/07/24 01:53:27;;;;;;;6.13;5.43;;;19.50;99.10;;;;;;5107472;28;20615;-86
2022/07/24 01:55:55;;;;;;;6.00;5.40;;;19.50;99.20;;;;;;5107500;28;20612;-86
2022/07/24 01:58:23;;;;;;;5.20;4.50;;;19.50;98.80;;;;;;5107519;28;21020;-85
2022/07/24 02:00:50;;;;;;;6.90;5.50;;;19.40;99.00;;;;;;5107482;28;21345;-86
2022/07/24 02:03:18;;;;;;;5.83;5.03;;;19.40;99.40;;;;;;5107489;28;20612;-86
2022/07/24 02:05:45;;;;;;;5.40;4.90;;;19.20;99.30;;;;;;5107509;28;21161;-86
2022/07/24 02:08:12;;;;;;;5.43;4.93;;;19.20;99.30;;;;;;5107784;28;20608;-86
2022/07/24 02:10:39;;;;;;;6.43;4.93;;;19.30;99.00;;;;;;5107065;28;20620;-86
2022/07/24 02:13:07;;;;;;;5.50;4.93;;;19.30;98.60;;;;;;5108145;28;20620;-86
2022/07/24 02:15:39;;;;;;;5.20;4.70;;;19.30;98.40;;;;;;5107800;28;20599;-86
2022/07/24 02:18:07;;;;;;;5.60;5.10;;;19.30;98.70;;;;;;5111536;28;20687;-86
2022/07/24 02:20:34;;;;;;;5.77;4.77;;;19.30;99.10;;;;;;5111139;28;20654;-86
2022/07/24 02:23:01;;;;;;;6.17;5.20;;;19.30;99.20;;;;;;5111045;28;20608;-86
2022/07/24 02:25:28;;;;;;;5.70;4.97;;;19.40;98.80;;;;;;5111016;28;20607;-86
2022/07/24 02:27:55;;;;;;;7.13;5.37;;;19.30;98.50;;;;;;5110907;28;20655;-86
2022/07/24 02:30:25;;;;;;;5.53;4.90;;;19.30;98.20;;;;;;5110706;28;20608;-86
2022/07/24 02:32:52;;;;;;;7.10;5.63;;;19.40;98.70;;;;;;5110871;28;20643;-86
2022/07/24 02:35:19;;;;;;;6.60;5.27;;;19.30;98.70;;;;;;5110893;28;21169;-85
2022/07/24 02:37:46;;;;;;;9.30;5.00;;;19.20;99.20;;;;;;5110790;28;20648;-86
2022/07/24 02:40:15;;;;;;;6.17;4.70;;;19.10;99.30;;;;;;5110747;28;20692;-86
2022/07/24 02:42:42;;;;;;;6.20;5.60;;;19.10;99.90;;;;;;5089521;28;20622;-86
2022/07/24 02:45:10;;;;;;;8.20;6.30;;;19.00;99.90;;;;;;5090543;28;20608;-86
2022/07/24 02:47:48;;;;;;;7.23;6.07;;;18.90;99.90;;;;;;5090620;28;20616;-86
2022/07/24 02:50:15;;;;;;;5.77;4.83;;;18.90;99.90;;;;;;5090121;28;21269;-86
2022/07/24 02:52:41;;;;;;;7.07;6.03;;;19.00;99.60;;;;;;5089544;28;20967;-86
2022/07/24 02:55:09;;;;;;;6.77;5.20;;;19.00;99.60;;;;;;5089918;28;20632;-85
2022/07/24 02:57:36;;;;;;;5.67;5.07;;;18.90;99.90;;;;;;5090065;28;20677;-86
2022/07/24 03:00:06;;;;;;;6.13;5.53;;;18.80;99.90;;;;;;5089342;28;20651;-86
2022/07/24 03:02:33;;;;;;;6.50;5.37;;;18.80;99.90;;;;;;5089332;28;20640;-86
2022/07/24 03:05:02;;;;;;;5.47;4.70;;;18.80;99.90;;;;;;5090278;28;21250;-86
2022/07/24 03:07:29;;;;;;;5.87;5.33;;;18.70;99.90;;;;;;5090128;28;20616;-86
2022/07/24 03:09:56;;;;;;;9.00;6.43;;;18.70;99.90;;;;;;5089992;28;20624;-86
2022/07/24 03:12:23;;;;;;;7.70;5.20;;;18.80;99.90;;;;;;5089632;28;20644;-86
2022/07/24 03:14:50;;;;;;;7.10;5.50;;;18.80;99.90;;;;;;5089921;28;20681;-86
2022/07/24 03:17:17;;;;;;;6.50;5.30;;;18.70;99.90;;;;;;5090367;28;20657;-87
2022/07/24 03:19:44;;;;;;;7.40;6.43;;;18.60;99.90;;;;;;5090529;28;20702;-86
2022/07/24 03:22:13;;;;;;;7.00;6.30;;;18.60;99.90;;;;;;5088889;28;20660;-85
2022/07/24 03:24:39;;;;;;;10.23;7.23;;;18.60;99.90;;;;;;5089706;28;20616;-86
2022/07/24 03:27:09;;;;;;;6.17;5.57;;;18.50;99.90;;;;;;5089327;28;20705;-86
2022/07/24 03:29:36;;;;;;;7.70;6.20;;;18.50;99.90;;;;;;5090280;28;20601;-86
2022/07/24 03:32:04;;;;;;;11.47;5.73;;;18.50;99.90;;;;;;5090234;28;20624;-86
2022/07/24 03:34:31;;;;;;;7.30;6.43;;;18.60;99.90;;;;;;5104517;28;20624;-86
2022/07/24 03:36:58;;;;;;;7.70;6.67;;;18.60;99.90;;;;;;5109153;28;20647;-86
2022/07/24 03:39:26;;;;;;;7.40;6.37;;;18.60;99.90;;;;;;5109275;28;21047;-86
2022/07/24 03:41:53;;;;;;;7.93;5.67;;;18.60;99.90;;;;;;5109327;28;20746;-86
2022/07/24 03:44:20;;;;;;;6.17;5.43;;;18.60;99.90;;;;;;5109449;28;20659;-86
2022/07/24 03:46:47;;;;;;;8.00;5.87;;;18.60;99.90;;;;;;5109135;28;20608;-86
2022/07/24 03:49:14;;;;;;;8.00;5.97;;;18.50;99.90;;;;;;5108723;28;20618;-86
2022/07/24 03:51:41;;;;;;;6.93;6.20;;;18.50;99.90;;;;;;5109283;28;20723;-86
2022/07/24 03:54:08;;;;;;;7.53;5.77;;;18.50;99.90;;;;;;5108975;28;20611;-86
2022/07/24 03:56:36;;;;;;;7.37;5.43;;;18.50;99.90;;;;;;5109242;28;20611;-86
2022/07/24 03:59:03;;;;;;;5.97;5.47;;;18.40;99.90;;;;;;5108684;28;20681;-86
2022/07/24 04:01:30;;;;;;;5.90;5.30;;;18.40;99.90;;;;;;5108868;28;21070;-85
2022/07/24 04:03:58;;;;;;;5.90;5.30;;;18.40;99.90;;;;;;5108477;28;20604;-86
2022/07/24 04:06:25;;;;;;;6.57;5.97;;;18.40;99.90;;;;;;5109146;28;20630;-85
2022/07/24 04:08:51;;;;;;;7.50;6.10;;;18.40;99.90;;;;;;5109568;27;20929;-87
2022/07/24 04:11:18;;;;;;;8.23;6.37;;;18.50;99.90;;;;;;5109158;28;20618;-86
2022/07/24 04:13:47;;;;;;;5.73;4.63;;;18.50;99.90;;;;;;5108670;28;20604;-86
2022/07/24 04:16:14;;;;;;;6.43;5.83;;;18.40;99.90;;;;;;5108890;28;20684;-86
2022/07/24 04:18:41;;;;;;;6.17;5.17;;;18.40;99.90;;;;;;5108553;28;20604;-86
2022/07/24 04:21:08;;;;;;;5.97;5.17;;;18.30;99.90;;;;;;5109008;28;20655;-86
2022/07/24 04:23:35;;;;;;;7.30;5.70;;;18.40;99.90;;;;;;5108688;28;20645;-86
2022/07/24 04:26:02;;;;;;;5.50;5.00;;;18.50;99.90;;;;;;5108839;28;21207;-86
2022/07/24 04:28:30;;;;;;;8.00;5.53;;;18.40;99.90;;;;;;5108749;28;20701;-86
2022/07/24 04:30:58;;;;;;;6.70;4.57;;;18.40;99.90;;;;;;5108327;28;20603;-86
2022/07/24 04:33:25;;;;;;;5.70;5.10;;;18.40;99.90;;;;;;5108537;28;20677;-86
2022/07/24 04:35:52;;;;;;;6.67;5.97;;;18.40;99.90;;;;;;5108454;28;20622;-86
2022/07/24 04:38:19;;;;;;;7.67;5.40;;;18.50;99.90;;;;;;5108953;28;20647;-86
2022/07/24 04:40:46;;;;;;;5.83;5.23;;;18.50;99.90;;;;;;5107472;28;20755;-86
2022/07/24 04:43:13;;;;;;;5.80;4.50;;;18.50;99.90;;;;;;5108601;28;20701;-86
2022/07/24 04:45:40;;;;;;;6.73;5.13;;;18.50;99.90;;;;;;5108223;28;20616;-86
2022/07/24 04:48:08;;;;;;;7.10;5.83;;;18.60;99.90;;;;;;5108849;28;20672;-87
2022/07/24 04:50:35;;;;;;;5.70;5.10;;;18.60;99.90;;;;;;5108442;28;20635;-86
2022/07/24 04:53:02;;;;;;;7.40;5.60;;;18.70;99.90;;;;;;5108621;28;20665;-86
2022/07/24 04:55:31;;;;;;;6.60;5.30;;;18.70;99.90;;;;;;5108663;28;20612;-86
2022/07/24 04:57:58;;;;;;;12.13;5.50;;;18.80;99.90;;;;;;5109050;28;20771;-86
2022/07/24 05:00:25;;;;;;;6.77;6.07;;;18.80;99.90;;;;;;5107173;28;20655;-86
2022/07/24 05:02:52;;;;;;;5.83;5.23;;;18.90;99.90;;;;;;5108011;28;20681;-86
2022/07/24 05:05:21;;;;;;;5.90;5.27;;;19.10;99.90;;;;;;5108118;28;20616;-86
2022/07/24 05:07:48;;;;;;;7.40;5.10;;;19.20;99.90;;;;;;5108115;28;20668;-86
2022/07/24 05:10:16;;;;;;;6.93;5.90;;;19.30;99.90;;;;;;5107997;28;20619;-86
2022/07/24 05:12:44;;;;;;;9.87;5.70;;;19.50;99.90;;;;;;5107361;28;20599;-86
2022/07/24 05:15:11;;;;;;;6.10;5.47;;;19.50;99.90;;;;;;5108259;28;20647;-87
2022/07/24 05:17:38;;;;;;;9.40;5.00;;;19.70;99.90;;;;;;5108143;28;20604;-86
2022/07/24 05:20:07;;;;;;;5.80;5.20;;;19.80;99.90;;;;;;5108573;28;20615;-86
2022/07/24 05:22:35;;;;;;;7.10;6.40;;;19.90;99.90;;;;;;5107452;28;21025;-85
2022/07/24 05:25:02;;;;;;;6.10;5.40;;;20.00;99.90;;;;;;5108021;28;20624;-87
2022/07/24 05:27:29;;;;;;;7.70;6.13;;;20.10;99.10;;;;;;5107929;28;20614;-87
2022/07/24 05:29:56;;;;;;;6.07;5.43;;;20.10;98.90;;;;;;5107988;28;20743;-87
2022/07/24 05:32:23;;;;;;;5.83;5.13;;;20.20;98.70;;;;;;5107189;28;20992;-85
2022/07/24 05:34:50;;;;;;;7.53;5.77;;;20.30;98.80;;;;;;5108090;28;20677;-87
2022/07/24 05:37:17;;;;;;;6.80;6.07;;;20.40;98.70;;;;;;5107708;28;20604;-87
2022/07/24 05:39:45;;;;;;;7.03;5.77;;;20.50;98.70;;;;;;5107239;28;20799;-87
2022/07/24 05:42:12;;;;;;;7.37;5.77;;;20.60;98.00;;;;;;5107365;28;21082;-87
2022/07/24 05:44:42;;;;;;;6.60;6.00;;;20.60;97.90;;;;;;5107850;28;21025;-87
2022/07/24 05:47:09;;;;;;;8.33;5.83;;;20.80;97.60;;;;;;5107845;28;21131;-85
2022/07/24 05:49:36;;;;;;;6.20;5.60;;;20.80;97.50;;;;;;5107655;28;20924;-86
2022/07/24 05:52:03;;;;;;;6.27;5.53;;;20.90;97.80;;;;;;5111022;28;20673;-86
2022/07/24 05:54:32;;;;;;;5.57;4.97;;;20.90;97.30;;;;;;5111699;28;20623;-86
2022/07/24 05:57:01;;;;;;;7.53;6.83;;;20.90;97.80;;;;;;5111612;28;20608;-86
2022/07/24 05:59:28;;;;;;;10.40;5.60;;;21.00;97.50;;;;;;5111087;28;20668;-87
2022/07/24 06:01:54;;;;;;;6.50;5.90;;;21.10;97.40;;;;;;5111220;28;20655;-86
2022/07/24 06:04:21;;;;;;;7.37;5.77;;;21.30;97.20;;;;;;5111450;28;20615;-86
2022/07/24 06:06:51;;;;;;;6.03;5.43;;;21.30;96.70;;;;;;5111000;28;20618;-87
2022/07/24 06:09:18;;;;;;;6.10;5.50;;;21.40;96.90;;;;;;5111792;28;20639;-86
2022/07/24 06:11:45;;;;;;;6.07;5.47;;;21.50;96.80;;;;;;5112336;28;20719;-86
2022/07/24 06:14:13;;;;;;;6.70;6.10;;;21.60;96.50;;;;;;5111605;28;20603;-86
2022/07/24 06:16:40;;;;;;;6.30;5.80;;;21.70;96.60;;;;;;5111733;28;20715;-86
2022/07/24 06:19:07;;;;;;;4.70;4.30;;;21.70;95.60;;;;;;5111548;28;20622;-86
2022/07/24 06:21:34;;;;;;;6.23;5.53;;;21.50;94.30;;;;;;5111181;28;20700;-87
2022/07/24 06:24:00;;;;;;;5.53;4.63;;;21.80;93.80;;;;;;5111665;28;20704;-86
2022/07/24 06:26:27;;;;;;;6.37;5.60;;;21.80;93.50;;;;;;5111278;28;20646;-86
2022/07/24 06:28:54;;;;;;;5.10;4.33;;;21.80;94.40;;;;;;5111823;28;20730;-86
2022/07/24 06:31:23;;;;;;;5.77;5.17;;;21.70;94.80;;;;;;5110671;28;20687;-86
2022/07/24 06:33:50;;;;;;;6.13;5.20;;;21.80;94.20;;;;;;5110380;28;20615;-87
2022/07/24 06:36:17;;;;;;;5.90;4.20;;;21.80;94.70;;;;;;5109234;27;20731;-86
2022/07/24 06:38:44;;;;;;;6.00;4.73;;;21.80;94.60;;;;;;5110090;28;20675;-85
2022/07/24 06:41:11;;;;;;;5.93;4.60;;;22.00;93.40;;;;;;5110566;28;20655;-86
2022/07/24 06:43:37;;;;;;;5.73;5.17;;;22.10;93.30;;;;;;5110534;28;20688;-85
2022/07/24 06:46:05;;;;;;;7.93;4.70;;;22.20;93.10;;;;;;5108038;28;20608;-87
2022/07/24 06:48:33;;;;;;;4.93;4.43;;;22.30;92.90;;;;;;5109355;28;21037;-86
2022/07/24 06:51:00;;;;;;;6.00;5.40;;;22.50;92.50;;;;;;5110582;28;20635;-86
2022/07/24 06:53:28;;;;;;;5.03;4.53;;;22.60;92.10;;;;;;5109544;28;20720;-90
2022/07/24 06:55:56;;;;;;;6.50;5.20;;;22.70;92.60;;;;;;5108542;28;20619;-88
2022/07/24 06:58:23;;;;;;;6.93;4.83;;;22.80;91.20;;;;;;5111198;28;20661;-88
2022/07/24 07:00:50;;;;;;;4.73;4.33;;;22.90;91.30;;;;;;5109133;28;20603;-87
2022/07/24 07:03:19;;;;;;;5.70;5.20;;;23.00;91.70;;;;;;5106347;28;20632;-86
2022/07/24 07:05:53;;;;;;;4.97;4.07;;;23.10;91.10;;;;;;5110852;28;20626;-86
2022/07/24 07:08:20;;;;;;;5.20;4.70;;;23.20;90.80;;;;;;5110243;28;20647;-86
2022/07/24 07:10:47;;;;;;;6.20;5.60;;;23.40;90.00;;;;;;5110348;28;20677;-87
2022/07/24 07:13:22;;;;;;;5.07;4.57;;;23.50;90.80;;;;;;5110182;28;20627;-87
2022/07/24 07:15:51;;;;;;;5.17;4.30;;;23.60;90.50;;;;;;5109660;28;20630;-88
2022/07/24 07:18:18;;;;;;;5.20;4.70;;;23.60;90.80;;;;;;5109944;28;20697;-87
2022/07/24 07:20:45;;;;;;;4.47;3.90;;;23.70;86.80;;;;;;5109848;28;20619;-87
2022/07/24 07:23:16;;;;;;;4.40;4.00;;;23.80;89.10;;;;;;5110432;28;20651;-86
2022/07/24 07:25:43;;;;;;;4.63;4.23;;;23.90;85.90;;;;;;5110854;28;20608;-86
2022/07/24 07:28:10;;;;;;;5.17;4.57;;;23.90;87.70;;;;;;5109989;28;21083;-87
2022/07/24 07:30:37;;;;;;;4.87;4.43;;;24.10;84.90;;;;;;5110558;28;21318;-86
2022/07/24 07:33:04;;;;;;;10.80;4.40;;;24.20;85.50;;;;;;5110463;28;20664;-87
2022/07/24 07:35:31;;;;;;;4.73;4.33;;;24.40;83.30;;;;;;5110391;28;20655;-87
2022/07/24 07:37:57;;;;;;;5.77;5.27;;;24.40;84.10;;;;;;5097320;28;20633;-86
2022/07/24 07:40:27;;;;;;;4.87;4.37;;;24.40;84.00;;;;;;5098559;28;20620;-88
2022/07/24 07:42:54;;;;;;;5.50;5.00;;;24.50;84.90;;;;;;5106805;28;20663;-88
2022/07/24 07:45:20;;;;;;;6.60;4.83;;;24.60;83.20;;;;;;5107339;28;20612;-88
2022/07/24 07:47:48;;;;;;;4.60;4.20;;;24.70;84.30;;;;;;5108097;28;20677;-87
2022/07/24 07:50:15;;;;;;;4.50;3.77;;;24.80;83.90;;;;;;5106245;28;20647;-87
2022/07/24 07:52:42;;;;;;;4.63;4.23;;;25.00;82.80;;;;;;5107122;28;20612;-87
2022/07/24 07:55:09;;;;;;;5.03;4.40;;;25.00;83.10;;;;;;5107932;28;20620;-87
2022/07/24 07:57:41;;;;;;;5.17;4.10;;;25.10;82.00;;;;;;5106447;28;20704;-88
2022/07/24 08:00:09;;;;;;;4.80;4.30;;;25.10;80.30;;;;;;5108633;28;20631;-88
2022/07/24 08:02:36;;;;;;;4.30;3.63;;;25.20;77.80;;;;;;5104280;28;20652;-88
2022/07/24 08:05:03;;;;;;;4.40;4.00;;;25.10;77.80;;;;;;5107918;28;20608;-87
2022/07/24 08:07:30;;;;;;;4.37;4.00;;;25.20;78.00;;;;;;5108042;28;20620;-88
2022/07/24 08:09:57;;;;;;;5.67;4.63;;;25.30;77.40;;;;;;5107379;28;20620;-89
2022/07/24 08:12:24;;;;;;;5.40;4.80;;;25.30;79.00;;;;;;5107715;28;20650;-89
2022/07/24 08:15:24;;;;;;;5.03;4.63;;;25.60;78.00;;;;;;5108083;28;20612;-91
2022/07/24 08:17:53;;;;;;;4.20;3.87;;;25.70;76.40;;;;;;5089691;28;20637;-90
2022/07/24 08:20:20;;;;;;;4.73;4.17;;;25.80;77.10;;;;;;5090517;28;20711;-89
2022/07/24 08:22:50;;;;;;;4.80;4.37;;;25.90;76.40;;;;;;5103935;28;20691;-89
2022/07/24 08:25:17;;;;;;;5.50;4.00;;;26.00;74.70;;;;;;5109136;28;20635;-89
2022/07/24 08:27:45;;;;;;;4.70;4.30;;;25.90;76.20;;;;;;5109269;28;20672;-90
2022/07/24 08:30:12;;;;;;;4.73;4.30;;;26.00;75.10;;;;;;5108602;28;20615;-89
2022/07/24 08:32:41;;;;;;;4.70;4.17;;;26.10;75.80;;;;;;5107069;28;20680;-88
2022/07/24 08:35:08;;;;;;;5.27;4.47;;;26.20;73.50;;;;;;5107438;28;20608;-88
2022/07/24 08:37:37;;;;;;;4.60;4.20;;;26.40;74.00;;;;;;5108088;27;20677;-87
2022/07/24 08:40:05;;;;;;;4.50;4.10;;;26.50;74.00;;;;;;5108291;28;20608;-87
2022/07/24 08:42:32;;;;;;;5.57;4.53;;;26.50;72.20;;;;;;5107408;28;22251;-88
2022/07/24 08:44:59;;;;;;;4.77;4.17;;;26.30;71.60;;;;;;5105754;28;20615;-87
2022/07/24 08:47:27;;;;;;;4.40;4.10;;;26.10;73.70;;;;;;5107695;28;20612;-87
2022/07/24 08:49:58;;;;;;;4.93;4.43;;;26.20;75.50;;;;;;5108095;28;20700;-89
2022/07/24 08:52:26;;;;;;;4.53;4.13;;;26.40;71.90;;;;;;5107093;28;20663;-88
2022/07/24 08:54:54;;;;;;;5.57;4.87;;;26.50;72.10;;;;;;5108128;28;20969;-89
2022/07/24 08:57:21;;;;;;;4.70;4.27;;;26.70;72.00;;;;;;5108291;28;20619;-87
2022/07/24 08:59:48;;;;;;;7.73;5.03;;;26.90;72.30;;;;;;5108821;28;21051;-88
2022/07/24 09:02:15;;;;;;;4.70;4.27;;;27.00;69.70;;;;;;5107768;28;20667;-88
2022/07/24 09:04:44;;;;;;;3.70;3.37;;;27.10;71.30;;;;;;5107261;28;20623;-89
2022/07/24 09:07:14;;;;;;;4.80;4.00;;;27.30;70.70;;;;;;5087902;28;20639;-87
2022/07/24 09:09:42;;;;;;;4.97;4.50;;;27.40;68.70;;;;;;5101381;28;21053;-88
2022/07/24 09:12:13;;;;;;;5.00;4.50;;;27.50;68.00;;;;;;5107445;28;20734;-87
2022/07/24 09:14:42;;;;;;;4.43;4.03;;;27.40;65.20;;;;;;5108357;28;20687;-87
2022/07/24 09:17:10;;;;;;;4.40;4.10;;;27.30;67.90;;;;;;5107061;28;20635;-87
2022/07/24 09:19:48;;;;;;;3.80;3.47;;;27.00;67.30;;;;;;5106908;28;20602;-87
2022/07/24 09:22:35;;;;;;;4.73;4.33;;;26.90;67.00;;;;;;5105851;28;20712;-87
2022/07/24 09:25:10;;;;;;;4.20;3.77;;;27.10;70.00;;;;;;5106599;28;20677;-88
2022/07/24 09:27:39;;;;;;;4.13;3.70;;;27.60;68.40;;;;;;5110601;27;20634;-87
2022/07/24 09:30:08;;;;;;;4.88;4.47;;;27.80;66.60;;;;;;5106052;28;20740;-87
2022/07/24 09:32:36;;;;;;;5.07;4.67;;;28.30;66.80;;;;;;5110039;28;20759;-87
2022/07/24 09:35:04;;;;;;;4.70;4.30;;;28.50;63.60;;;;;;5110638;28;20612;-87
2022/07/24 09:37:31;;;;;;;4.73;4.33;;;28.70;61.60;;;;;;5110227;28;20672;-87
2022/07/24 09:40:10;;;;;;;4.70;4.20;;;28.80;61.90;;;;;;5109825;28;20618;-87
2022/07/24 09:42:39;;;;;;;4.60;4.20;;;28.90;61.70;;;;;;5111539;28;20683;-87
2022/07/24 09:45:10;;;;;;;4.23;3.83;;;29.10;59.60;;;;;;5110849;28;21170;-89
2022/07/24 09:47:39;;;;;;;5.43;5.03;;;29.10;58.70;;;;;;5110906;28;20635;-87
2022/07/24 09:50:14;;;;;;;5.40;4.90;;;28.90;58.70;;;;;;5102904;28;20747;-89
2022/07/24 09:52:43;;;;;;;4.10;3.80;;;28.80;59.30;;;;;;5090198;28;21410;-87
2022/07/24 09:55:23;;;;;;;5.23;4.83;;;28.60;58.30;;;;;;5090925;28;20624;-87
2022/07/24 09:57:50;;;;;;;4.77;4.37;;;28.40;59.10;;;;;;5091457;28;20627;-87
2022/07/24 10:00:17;;;;;;;4.17;3.80;;;27.90;60.60;;;;;;5091196;28;20732;-88
2022/07/24 10:02:45;;;;;;;3.90;3.60;;;27.30;64.10;;;;;;5091251;28;20652;-87
2022/07/24 10:05:15;;;;;;;5.13;4.37;;;27.20;64.00;;;;;;5091703;28;20622;-88
2022/07/24 10:07:44;;;;;;;4.77;4.37;;;27.30;65.80;;;;;;5091463;28;20624;-88
2022/07/24 10:10:13;;;;;;;6.07;5.47;;;27.60;66.50;;;;;;5092165;28;20621;-88
2022/07/24 10:12:41;;;;;;;4.77;4.37;;;28.00;64.10;;;;;;5091051;28;21233;-88
2022/07/24 10:15:37;;;;;;;4.70;4.30;;;28.30;63.70;;;;;;5091849;28;20655;-88
2022/07/24 10:18:16;;;;;;;5.60;4.60;;;27.80;61.70;;;;;;5091712;28;20681;-88
2022/07/24 10:20:45;;;;;;;4.47;4.07;;;27.60;65.60;;;;;;5092291;28;20654;-88
2022/07/24 10:23:22;;;;;;;5.67;4.27;;;27.30;62.90;;;;;;5090625;28;20690;-88
2022/07/24 10:25:55;;;;;;;5.57;4.97;;;27.20;62.70;;;;;;5090796;28;21046;-90
2022/07/24 10:28:37;;;;;;;3.93;3.57;;;27.10;63.10;;;;;;5090945;28;20677;-88
2022/07/24 10:31:06;;;;;;;5.03;4.50;;;27.00;65.00;;;;;;5090900;28;20601;-88
2022/07/24 10:33:34;;;;;;;4.50;4.10;;;27.00;67.60;;;;;;5096582;28;20618;-89
2022/07/24 10:36:05;;;;;;;4.87;4.37;;;27.00;63.60;;;;;;5111649;28;20632;-89
2022/07/24 10:38:37;;;;;;;4.70;4.30;;;26.90;62.90;;;;;;5109959;28;21191;-89
2022/07/24 10:41:14;;;;;;;4.67;4.27;;;27.00;61.60;;;;;;5110824;28;20616;-89
2022/07/24 10:44:12;;;;;;;5.77;4.67;;;27.40;64.40;;;;;;5110771;28;20658;-89
2022/07/24 10:46:58;;;;;;;5.57;4.80;;;27.60;63.20;;;;;;5111320;28;21133;-88
2022/07/24 10:49:44;;;;;;;4.33;3.80;;;27.90;65.10;;;;;;5111002;28;20655;-88
2022/07/24 10:52:13;;;;;;;5.30;4.80;;;28.40;63.90;;;;;;5110695;28;20668;-89
2022/07/24 10:54:41;;;;;;;4.97;4.47;;;28.70;59.30;;;;;;5110931;28;20653;-88
2022/07/24 10:57:08;;;;;;;5.17;4.40;;;29.30;60.10;;;;;;5110937;28;20706;-88
2022/07/24 10:59:41;;;;;;;4.53;4.13;;;29.40;58.80;;;;;;5110675;28;21326;-89
2022/07/24 11:02:27;;;;;;;4.43;4.03;;;29.80;59.70;;;;;;5110616;28;20913;-89
2022/07/24 11:05:27;;;;;;;4.90;4.50;;;30.10;56.30;;;;;;5110109;27;20611;-88
2022/07/24 11:08:34;;;;;;;4.20;3.90;;;30.10;59.40;;;;;;5110946;27;20616;-88
2022/07/24 11:11:13;;;;;;;4.80;4.40;;;30.20;55.20;;;;;;5109961;28;20623;-88
2022/07/24 11:13:50;;;;;;;5.00;4.53;;;30.80;60.50;;;;;;5111131;28;20655;-88
2022/07/24 11:16:30;;;;;;;5.43;4.93;;;31.10;56.90;;;;;;5110759;28;20615;-88
2022/07/24 11:19:29;;;;;;;4.67;4.27;;;31.50;55.90;;;;;;5110798;28;20619;-88
2022/07/24 11:22:07;;;;;;;5.03;4.57;;;31.50;54.20;;;;;;5111040;28;20615;-87
2022/07/24 11:24:34;;;;;;;4.40;4.10;;;32.00;54.40;;;;;;5109826;27;20608;-87
2022/07/24 11:27:06;;;;;;;5.37;4.90;;;32.20;52.70;;;;;;5110016;28;20608;-88
2022/07/24 11:29:35;;;;;;;5.30;4.80;;;31.60;54.60;;;;;;5093825;28;20746;-88
2022/07/24 11:32:06;;;;;;;4.33;3.93;;;31.90;53.40;;;;;;5088466;28;21310;-88
2022/07/24 11:34:33;;;;;;;4.73;4.17;;;32.20;54.60;;;;;;5104449;28;20625;-89
2022/07/24 11:37:01;;;;;;;4.97;4.47;;;32.50;53.10;;;;;;5111343;28;20612;-90
2022/07/24 11:39:30;;;;;;;5.50;4.27;;;32.90;51.70;;;;;;5110370;28;20616;-88
2022/07/24 11:41:59;;;;;;;6.10;4.40;;;33.20;52.80;;;;;;5109170;27;20684;-88
2022/07/24 11:44:28;;;;;;;5.50;5.10;;;33.10;52.70;;;;;;5109139;28;20711;-88
2022/07/24 11:46:57;;;;;;;5.53;5.03;;;33.30;50.80;;;;;;5109241;28;20623;-91
2022/07/24 11:49:26;;;;;;;6.23;4.53;;;32.70;52.90;;;;;;5109385;28;20650;-92
2022/07/24 11:51:55;;;;;;;4.57;4.17;;;32.20;52.20;;;;;;5108379;28;20620;-91
2022/07/24 11:54:24;;;;;;;4.77;4.37;;;31.60;52.30;;;;;;5109732;28;20612;-91
2022/07/24 11:56:51;;;;;;;3.90;3.60;;;31.10;54.80;;;;;;5109189;28;20657;-90
2022/07/24 11:59:26;;;;;;;4.30;3.90;;;30.80;54.60;;;;;;5109824;28;20661;-91
2022/07/24 12:01:57;;;;;;;6.63;4.13;;;30.40;55.40;;;;;;5109393;28;20603;-91
2022/07/24 12:04:25;;;;;;;5.00;4.47;;;30.40;57.20;;;;;;5109631;28;20667;-92
2022/07/24 12:06:52;;;;;;;4.73;4.33;;;31.50;54.30;;;;;;5110865;28;20610;-90
2022/07/24 12:09:19;;;;;;;5.17;4.70;;;33.00;51.50;;;;;;5109378;28;20639;-92
2022/07/24 12:11:46;;;;;;;5.50;5.00;;;34.20;50.90;;;;;;5109590;28;21183;-92
2022/07/24 12:14:17;;;;;;;5.50;5.10;;;35.50;49.70;;;;;;5109823;28;20603;-90
2022/07/24 12:16:45;;;;;;;4.63;4.30;;;36.30;46.80;;;;;;5109938;28;20619;-91
2022/07/24 12:19:17;;;;;;;4.97;4.57;;;36.90;46.60;;;;;;5109716;28;20699;-92
2022/07/24 12:21:47;;;;;;;5.00;4.63;;;36.90;45.50;;;;;;5108912;28;20652;-92
2022/07/24 12:24:15;;;;;;;4.60;4.20;;;36.50;46.00;;;;;;5109425;28;20690;-92
2022/07/24 12:26:55;;;;;;;4.23;3.93;;;36.90;46.60;;;;;;5109626;28;20603;-92
2022/07/24 12:29:23;;;;;;;5.47;5.07;;;36.70;45.10;;;;;;5109812;28;20185;-91
2022/07/24 12:31:54;;;;;;;4.83;4.43;;;37.10;45.70;;;;;;5109283;28;20201;-89
2022/07/24 12:34:21;;;;;;;5.28;4.88;;;38.00;44.90;;;;;;5108998;28;20221;-89
2022/07/24 12:36:49;;;;;;;4.25;3.95;;;38.80;43.50;;;;;;5109483;28;20280;-89
2022/07/24 12:39:16;;;;;;;4.50;4.20;;;38.20;41.70;;;;;;5109600;28;20200;-90
2022/07/24 12:41:47;;;;;;;4.57;4.28;;;38.40;42.00;;;;;;5108558;28;20558;-90
2022/07/24 12:44:14;;;;;;;4.88;4.47;;;36.70;41.20;;;;;;5109508;28;20225;-90
2022/07/24 12:46:44;;;;;;;4.53;4.13;;;36.50;42.20;;;;;;5109558;28;20679;-90
2022/07/24 12:49:12;;;;;;;4.85;4.45;;;37.20;44.10;;;;;;5109245;28;20940;-90
2022/07/24 12:51:46;;;;;;;4.75;4.22;;;38.30;41.90;;;;;;5111055;28;20200;-89
2022/07/24 12:54:19;;;;;;;5.00;4.53;;;39.20;40.50;;;;;;5109598;28;20188;-90
2022/07/24 12:56:46;;;;;;;4.70;4.40;;;38.90;40.00;;;;;;5108999;28;20217;-90